Vandenberg Air Force Base Lompoc US
ICAO: KVBG
IATA: VBG
Category: Large
Scheduled Services: No

Elevation: 369 ft
TransAlt. 18000 ft.

Airport Communications:
SANTA BARB APP/DEP:124.15
COMD POST:31.1
ATIS:133.125
CTAF:124.95
GND/CLNC DEL:121.75
RANGE CON:121.4
PMSV METRO:34.24
PTD:126.2
TWR:124.95

KVBG Zoom In..

Runways:

(A) RW 12 length 15000 ft width 200 ft
ILS 110.10 / hdg 122

(B) RW 30 length 15000 ft width 200 ft
ILS 110.10 / hdg 302

Location; KVBG
Day. 23 / Time. 14.55 Zulu
* Altimeter: 30.17
* Temperature: 04° c. 39.2°f.
* Wind from: 090° Speed 07 kn.
Dewpoint: 04° c.
Visibility: 8 Statute Miles.
Clouds: Few 000 ft.
Clouds: Few 000 ft.
Conditions: Mist.Conditions: Fog.

KVBG 231455Z 09007KT 8SM FEW000 04/04 A3017 RMK AO2A BR FEW000 SLP221 FG BANK S T00440039 55004 FIRST


Wind From 090°
Speed 07 kn.

YouTube Music Video
 
jpsmedia.com for Web Design  worldairports.se 2018   terms of use